Terminal Aerodrome Forecast
Issued by NWS Charleston, WV

Current Version | Previous Version | Graphics & Text | Print | Product List | Glossary On
Versions: 1 2 3 4 5 6 7 8 9 10 11 12 13 14 15 16 17 18 19 20 21 22 23
007
FTUS41 KRLX 081750
TAFEKN
TAF
KEKN 081750Z 0818/0918 22005G12KT 6SM -SHSN BR OVC040
     FM082300 23007KT P6SM -SHRA OVC020
     FM090500 25008KT 4SM -SHSN BR OVC008
     FM090700 26009KT 1SM -SHSN BR OVC004
     FM091600 28010KT 2SM -SHSN BR OVC007=

USA.gov is the U.S. government's official web portal to all federal, state and local government web resources and services.